West End, Illinois
Current Conditions -  °F | °C
As of 12:15 PM on Thursday 27 Nov 2014 (Local Time) from KHSB Reporting Station
Overcast Overcast  
Wind Chill: 22°   Ceiling: 2200
Heat Index: 31°   Visibility: 7mi
Dew Point: 27°   Wind: 10mph
Humidity: 83%   Direction: 310°NW
Pressure: 30.48"   Gusts: NA
Location:  37.8635°N, 88.7619°W
Report Text: KHSB 271815Z AUTO 31009KT 7SM OVC022 00/M03 A3048 RMK AO2 T10051030
Loading
Personal Weather Stations






























Interactive Weather Map New forecast layout! Learn more

10-Day Weather Forecast

Advertisements
Track Severe Weather on mobile